Time;durP1;ratioP1;P1;durP2;ratioP2;P2;SDS_P1;SDS_P2;PMS_P1;PMS_P2;Temp;Humidity;BMP_temperature;BMP_pressure;BME280_temperature;BME280_humidity;BME280_pressure;Samples;Min_cycle;Max_cycle;Signal;HPM_P1;HPM_P2
2022/04/15 00:01:23;;;;;;;23.57;15.33;;;;;;;7.10;nan;-24015.34;5054277;28;20174;-73
2022/04/15 00:03:52;;;;;;;35.00;17.20;;;;;;;7.58;nan;-24028.53;5053381;28;20266;-72
2022/04/15 00:06:18;;;;;;;31.50;16.07;;;;;;;7.59;nan;-24028.81;5044953;28;20174;-73
2022/04/15 00:08:45;;;;;;;26.93;16.37;;;;;;;7.53;nan;-24027.41;5053630;28;20182;-71
2022/04/15 00:11:11;;;;;;;28.40;14.90;;;;;;;7.62;nan;-24029.81;5053892;28;20277;-72
2022/04/15 00:13:36;;;;;;;25.83;14.93;;;;;;;7.32;nan;-24021.47;5053519;28;20210;-74
2022/04/15 00:16:06;;;;;;;26.57;15.17;;;;;;;7.45;nan;-24025.00;5053581;28;20175;-74
2022/04/15 00:18:32;;;;;;;24.80;14.83;;;;;;;7.79;nan;-24034.63;5053460;28;20182;-71
2022/04/15 00:20:59;;;;;;;25.20;15.53;;;;;;;7.77;nan;-24034.06;5033937;28;20188;-71
2022/04/15 00:23:24;;;;;;;28.07;15.60;;;;;;;7.45;nan;-24025.13;5033507;28;20175;-73
2022/04/15 00:25:51;;;;;;;28.10;14.67;;;;;;;7.77;nan;-24034.06;5033696;28;20531;-75
2022/04/15 00:28:17;;;;;;;24.20;15.30;;;;;;;7.82;nan;-24035.47;5033465;28;20661;-73
2022/04/15 00:30:42;;;;;;;33.47;15.77;;;;;;;7.69;nan;-24031.81;5033293;28;20175;-72
2022/04/15 00:33:08;;;;;;;27.80;16.20;;;;;;;7.31;nan;-24021.16;5033294;28;20191;-74
2022/04/15 00:35:33;;;;;;;32.53;16.43;;;;;;;7.44;nan;-24024.72;5032993;28;20214;-72
2022/04/15 00:37:59;;;;;;;26.13;16.20;;;;;;;7.68;nan;-24031.38;5032734;28;20234;-73
2022/04/15 00:40:24;;;;;;;29.07;16.77;;;;;;;7.70;nan;-24032.09;5032178;28;20186;-75
2022/04/15 00:42:50;;;;;;;25.07;16.13;;;;;;;7.54;nan;-24027.69;5032862;28;20250;-70
2022/04/15 00:45:15;;;;;;;26.80;15.93;;;;;;;7.14;nan;-24016.22;5032583;28;20236;-73
2022/04/15 00:47:53;;;;;;;29.57;18.13;;;;;;;7.80;nan;-24034.78;5031617;28;20225;-72
2022/04/15 00:50:26;;;;;;;27.77;17.50;;;;;;;7.79;nan;-24034.63;5032574;28;20183;-72
2022/04/15 00:52:54;;;;;;;31.97;17.23;;;;;;;7.76;nan;-24033.66;5030899;28;20324;-71
2022/04/15 00:55:22;;;;;;;31.40;17.70;;;;;;;7.69;nan;-24031.66;5032464;28;20188;-72
2022/04/15 00:57:55;;;;;;;28.53;17.27;;;;;;;7.34;nan;-24021.88;5032293;28;20183;-73
2022/04/15 01:00:21;;;;;;;26.63;15.83;;;;;;;7.26;nan;-24019.63;5032129;28;20217;-74
2022/04/15 01:02:47;;;;;;;25.07;15.57;;;;;;;7.20;nan;-24017.91;5032422;28;20174;-75
2022/04/15 01:05:13;;;;;;;27.20;15.03;;;;;;;7.58;nan;-24028.53;5032590;28;20175;-73
2022/04/15 01:07:41;;;;;;;24.23;15.27;;;;;;;7.67;nan;-24031.09;5031665;28;20174;-71
2022/04/15 01:10:09;;;;;;;23.97;14.57;;;;;;;7.57;nan;-24028.41;5031565;28;20163;-72
2022/04/15 01:12:38;;;;;;;23.27;14.90;;;;;;;7.61;nan;-24029.53;5032415;28;20195;-74
2022/04/15 01:15:07;;;;;;;23.93;14.20;;;;;;;7.55;nan;-24027.97;5032563;28;20246;-72
2022/04/15 01:17:35;;;;;;;18.93;12.43;;;;;;;7.36;nan;-24022.59;5032615;28;20190;-72
2022/04/15 01:20:01;;;;;;;20.43;12.37;;;;;;;7.80;nan;-24034.91;5032597;28;20274;-72
2022/04/15 01:22:36;;;;;;;20.80;13.07;;;;;;;7.24;nan;-24019.03;5031092;28;20178;-74
2022/04/15 01:25:03;;;;;;;22.97;14.20;;;;;;;7.26;nan;-24019.63;5032297;28;20611;-74
2022/04/15 01:27:33;;;;;;;22.77;14.23;;;;;;;7.31;nan;-24021.03;5032299;28;20182;-73
2022/04/15 01:29:59;;;;;;;23.23;13.97;;;;;;;7.04;nan;-24013.66;5031641;28;20648;-73
2022/04/15 01:32:24;;;;;;;21.00;13.07;;;;;;;7.38;nan;-24023.16;5032014;28;22060;-73
2022/04/15 01:34:50;;;;;;;22.47;14.60;;;;;;;7.14;nan;-24016.22;5032289;28;20184;-73
2022/04/15 01:37:19;;;;;;;22.00;13.70;;;;;;;7.43;nan;-24024.56;5032533;28;20294;-72
2022/04/15 01:39:46;;;;;;;21.00;13.23;;;;;;;7.40;nan;-24023.59;5032174;28;20190;-71
2022/04/15 01:42:12;;;;;;;21.70;14.00;;;;;;;6.78;nan;-24006.28;5031975;28;20237;-72
2022/04/15 01:44:39;;;;;;;24.13;13.37;;;;;;;7.18;nan;-24017.47;5032820;28;20205;-74
2022/04/15 01:47:05;;;;;;;26.23;13.57;;;;;;;6.81;nan;-24007.13;5031967;28;20184;-75
2022/04/15 01:49:30;;;;;;;26.10;13.37;;;;;;;7.37;nan;-24022.72;5032544;28;20554;-71
2022/04/15 01:51:55;;;;;;;21.17;13.17;;;;;;;7.43;nan;-24024.56;5032316;28;20769;-73
2022/04/15 01:54:21;;;;;;;20.43;12.60;;;;;;;7.55;nan;-24027.84;5031047;28;20768;-72
2022/04/15 01:56:46;;;;;;;22.57;13.47;;;;;;;7.20;nan;-24017.91;5032085;28;20262;-70
2022/04/15 01:59:12;;;;;;;22.73;12.97;;;;;;;6.85;nan;-24008.13;5032081;28;20195;-72
2022/04/15 02:01:37;;;;;;;22.87;13.60;;;;;;;6.75;nan;-24005.28;5031990;28;20222;-71
2022/04/15 02:04:03;;;;;;;22.97;14.10;;;;;;;6.82;nan;-24007.28;5031566;28;20511;-73
2022/04/15 02:06:28;;;;;;;23.40;14.30;;;;;;;6.59;nan;-24000.88;5032002;28;20176;-72
2022/04/15 02:08:53;;;;;;;21.13;13.60;;;;;;;7.07;nan;-24014.50;5032571;28;20172;-73
2022/04/15 02:11:19;;;;;;;28.93;15.07;;;;;;;6.51;nan;-23998.63;5032899;28;20171;-73
2022/04/15 02:13:44;;;;;;;23.53;13.10;;;;;;;7.07;nan;-24014.50;5032772;28;20199;-74
2022/04/15 02:16:10;;;;;;;21.33;12.37;;;;;;;7.10;nan;-24015.22;5042881;28;20230;-70
2022/04/15 02:18:36;;;;;;;23.03;12.60;;;;;;;6.95;nan;-24011.09;5056733;28;20163;-72
2022/04/15 02:21:02;;;;;;;17.90;12.10;;;;;;;6.84;nan;-24007.84;5056664;28;20243;-74
2022/04/15 02:23:27;;;;;;;24.23;12.33;;;;;;;7.12;nan;-24015.66;5032375;28;20256;-74
2022/04/15 02:25:53;;;;;;;21.40;12.50;;;;;;;6.69;nan;-24003.72;5031851;28;20320;-71
2022/04/15 02:28:19;;;;;;;23.17;13.37;;;;;;;6.75;nan;-24005.44;5031834;28;20243;-73
2022/04/15 02:30:47;;;;;;;22.23;13.33;;;;;;;6.80;nan;-24006.84;5031888;28;20183;-71
2022/04/15 02:33:13;;;;;;;21.00;12.33;;;;;;;6.83;nan;-24007.69;5031856;28;20187;-70
2022/04/15 02:35:39;;;;;;;17.97;11.27;;;;;;;6.44;nan;-23996.78;5031722;28;20179;-73
2022/04/15 02:38:04;;;;;;;25.23;13.20;;;;;;;6.29;nan;-23992.38;5031635;28;20217;-74
2022/04/15 02:40:30;;;;;;;20.97;12.27;;;;;;;6.46;nan;-23997.34;5032015;28;20262;-70
2022/04/15 02:42:55;;;;;;;22.80;12.83;;;;;;;5.43;nan;-23968.22;5031965;28;20527;-71
2022/04/15 02:45:21;;;;;;;24.10;12.90;;;;;;;6.32;nan;-23993.38;5030288;28;20622;-72
2022/04/15 02:47:47;;;;;;;25.83;13.90;;;;;;;6.54;nan;-23999.63;5031574;28;20266;-74
2022/04/15 02:50:13;;;;;;;24.73;12.10;;;;;;;6.45;nan;-23996.91;5030251;28;20226;-74
2022/04/15 02:52:38;;;;;;;17.50;11.37;;;;;;;6.51;nan;-23998.63;5030960;28;20231;-71
2022/04/15 02:55:04;;;;;;;17.63;10.70;;;;;;;6.47;nan;-23997.63;5030175;28;20181;-73
2022/04/15 02:57:30;;;;;;;16.83;10.57;;;;;;;6.09;nan;-23986.97;5031440;28;20254;-74
2022/04/15 02:59:55;;;;;;;17.07;10.23;;;;;;;6.26;nan;-23991.66;5031836;28;20171;-71
2022/04/15 03:02:21;;;;;;;20.40;10.47;;;;;;;6.39;nan;-23995.34;5031508;28;20237;-72
2022/04/15 03:04:46;;;;;;;21.17;11.37;;;;;;;5.98;nan;-23983.84;5031581;28;20643;-74
2022/04/15 03:07:11;;;;;;;16.47;10.57;;;;;;;6.16;nan;-23988.97;5030063;28;20218;-72
2022/04/15 03:09:37;;;;;;;18.40;10.30;;;;;;;6.60;nan;-24001.19;5031303;28;20183;-74
2022/04/15 03:12:03;;;;;;;23.97;11.37;;;;;;;6.39;nan;-23995.22;5030334;28;20187;-71
2022/04/15 03:14:28;;;;;;;22.53;12.00;;;;;;;5.88;nan;-23980.88;5028322;28;20211;-73
2022/04/15 03:16:54;;;;;;;18.57;12.87;;;;;;;5.87;nan;-23980.59;5028423;28;20191;-71
2022/04/15 03:19:19;;;;;;;18.87;11.80;;;;;;;6.10;nan;-23987.13;5033773;28;20195;-72
2022/04/15 03:21:45;;;;;;;23.37;12.40;;;;;;;5.72;nan;-23976.47;5030884;28;20226;-73
2022/04/15 03:24:11;;;;;;;27.23;12.70;;;;;;;6.12;nan;-23987.69;5028771;28;20222;-73
2022/04/15 03:26:36;;;;;;;22.87;12.40;;;;;;;5.99;nan;-23984.00;5028042;28;20312;-73
2022/04/15 03:29:02;;;;;;;23.40;12.87;;;;;;;6.11;nan;-23987.41;5028407;28;20622;-73
2022/04/15 03:31:27;;;;;;;19.53;12.73;;;;;;;5.85;nan;-23980.00;5027777;28;20183;-71
2022/04/15 03:33:53;;;;;;;21.63;13.33;;;;;;;6.00;nan;-23984.28;5028174;28;20218;-72
2022/04/15 03:36:18;;;;;;;20.83;13.23;;;;;;;5.45;nan;-23968.94;5028513;28;20194;-73
2022/04/15 03:38:44;;;;;;;21.67;12.90;;;;;;;5.93;nan;-23982.28;5027590;28;20220;-73
2022/04/15 03:41:10;;;;;;;17.60;11.83;;;;;;;5.45;nan;-23968.78;5028272;28;20187;-72
2022/04/15 03:43:35;;;;;;;21.30;10.87;;;;;;;5.55;nan;-23971.63;5028444;28;20230;-71
2022/04/15 03:49:22;;;;;;;17.97;11.43;;;;;;;6.13;nan;-23987.97;5024824;28;20206;-74
2022/04/15 03:51:48;;;;;;;16.47;11.67;;;;;;;6.04;nan;-23985.56;5027478;28;20225;-71
2022/04/15 03:54:37;;;;;;;16.93;11.10;;;;;;;6.25;nan;-23991.22;5028852;28;20270;-71
2022/04/15 03:57:02;;;;;;;21.27;11.77;;;;;;;6.25;nan;-23991.22;5027466;28;20181;-71
2022/04/15 03:59:28;;;;;;;18.30;11.27;;;;;;;5.89;nan;-23981.28;5026859;28;20192;-72
2022/04/15 04:02:09;;;;;;;20.83;11.60;;;;;;;6.47;nan;-23997.63;5027684;28;20196;-71
2022/04/15 04:04:34;;;;;;;21.37;11.37;;;;;;;6.18;nan;-23989.38;5026438;28;20570;-73
2022/04/15 04:07:00;;;;;;;16.40;11.17;;;;;;;6.79;nan;-24006.56;5025425;28;20471;-70
2022/04/15 04:09:25;;;;;;;20.93;12.00;;;;;;;7.61;nan;-24029.53;5021988;28;20179;-74
2022/04/15 04:11:51;;;;;;;18.60;11.47;;;;;;;7.74;nan;-24033.22;5024617;28;20179;-70
2022/04/15 04:14:16;;;;;;;21.63;12.13;;;;;;;8.05;nan;-24041.84;5023736;28;20690;-73
2022/04/15 04:16:42;;;;;;;22.83;12.10;;;;;;;8.83;nan;-24063.66;5025374;28;20188;-72
2022/04/15 04:19:07;;;;;;;21.73;11.90;;;;;;;8.92;nan;-24066.06;5025962;28;20209;-71
2022/04/15 04:21:33;;;;;;;18.47;12.13;;;;;;;9.42;nan;-24080.22;5025401;28;20542;-70
2022/04/15 04:23:59;;;;;;;24.20;12.67;;;;;;;10.13;nan;-24099.97;5022485;28;20274;-73
2022/04/15 04:26:24;;;;;;;19.87;12.43;;;;;;;10.21;nan;-24102.25;5020670;28;20298;-71
2022/04/15 04:28:49;;;;;;;23.47;13.10;;;;;;;10.35;nan;-24106.19;5020269;28;20233;-72
2022/04/15 04:31:17;;;;;;;22.37;12.53;;;;;;;10.47;nan;-24109.44;5024301;28;20202;-74
2022/04/15 04:33:42;;;;;;;23.53;13.00;;;;;;;10.54;nan;-24111.41;5019838;28;20650;-71
2022/04/15 04:36:07;;;;;;;22.40;12.83;;;;;;;10.69;nan;-24115.50;5024363;28;20250;-71
2022/04/15 04:38:33;;;;;;;26.73;12.80;;;;;;;10.38;nan;-24107.03;5025761;28;20184;-71
2022/04/15 04:40:58;;;;;;;19.90;11.80;;;;;;;10.19;nan;-24101.81;5025872;28;20183;-74
2022/04/15 04:43:24;;;;;;;23.57;13.70;;;;;;;10.58;nan;-24112.69;5029207;28;20589;-70
2022/04/15 04:45:49;;;;;;;19.60;11.20;;;;;;;10.34;nan;-24105.78;5033094;28;20228;-73
2022/04/15 04:48:15;;;;;;;19.80;11.20;;;;;;;9.37;nan;-24078.78;5032654;28;20183;-68
2022/04/15 04:50:40;;;;;;;37.90;12.73;;;;;;;9.14;nan;-24072.44;5032556;28;20188;-69
2022/04/15 04:53:06;;;;;;;26.20;12.60;;;;;;;8.91;nan;-24065.78;5026536;28;20238;-70
2022/04/15 04:55:31;;;;;;;31.93;13.03;;;;;;;8.32;nan;-24049.50;5029999;28;20276;-70
2022/04/15 04:57:56;;;;;;;23.27;11.40;;;;;;;8.65;nan;-24058.72;5029596;28;20187;-70
2022/04/15 05:00:22;;;;;;;19.17;10.17;;;;;;;8.34;nan;-24050.06;5027671;28;20192;-70
2022/04/15 05:02:48;;;;;;;18.77;10.40;;;;;;;8.25;nan;-24047.53;5026414;28;20182;-72
2022/04/15 05:05:14;;;;;;;20.33;10.67;;;;;;;8.75;nan;-24061.53;5028441;28;20188;-71
2022/04/15 05:07:40;;;;;;;19.30;10.00;;;;;;;9.21;nan;-24074.25;5027253;28;20175;-71
2022/04/15 05:10:06;;;;;;;16.80;8.93;;;;;;;9.59;nan;-24085.00;5041782;28;20823;-72
2022/04/15 05:12:32;;;;;;;14.67;9.40;;;;;;;9.55;nan;-24083.88;5027965;28;20195;-70
2022/04/15 05:14:57;;;;;;;17.43;8.63;;;;;;;9.75;nan;-24089.38;5024853;28;20197;-71
2022/04/15 05:17:24;;;;;;;11.33;8.20;;;;;;;9.85;nan;-24092.06;5024946;28;20724;-71
2022/04/15 05:19:49;;;;;;;18.03;8.60;;;;;;;9.85;nan;-24092.06;5024866;28;20540;-71
2022/04/15 05:22:15;;;;;;;17.20;8.50;;;;;;;10.09;nan;-24099.00;5023891;28;20217;-71
2022/04/15 05:24:40;;;;;;;13.17;8.27;;;;;;;10.45;nan;-24108.88;5023153;28;20277;-71
2022/04/15 05:27:07;;;;;;;14.53;8.47;;;;;;;10.64;nan;-24114.25;5025471;28;20186;-71
2022/04/15 05:29:33;;;;;;;17.63;9.33;;;;;;;10.91;nan;-24121.72;5026017;28;20270;-71
2022/04/15 05:31:58;;;;;;;24.13;8.50;;;;;;;10.69;nan;-24115.66;5041122;28;20186;-71
2022/04/15 05:34:24;;;;;;;15.90;8.47;;;;;;;10.80;nan;-24118.63;5025940;28;20207;-71
2022/04/15 05:36:49;;;;;;;13.50;7.33;;;;;;;11.12;nan;-24127.50;5026714;28;20240;-71
2022/04/15 05:39:15;;;;;;;14.95;8.13;;;;;;;11.50;nan;-24138.22;5022683;28;20329;-71
2022/04/15 05:41:40;;;;;;;13.82;7.80;;;;;;;11.49;nan;-24138.06;5024756;28;20186;-71
2022/04/15 05:44:08;;;;;;;13.77;8.05;;;;;;;11.53;nan;-24139.06;5024317;28;20927;-71
2022/04/15 05:46:37;;;;;;;14.15;8.23;;;;;;;11.47;nan;-24137.34;5023259;28;20191;-71
2022/04/15 05:49:04;;;;;;;12.32;8.05;;;;;;;11.80;nan;-24146.66;5023981;28;20179;-71
2022/04/15 05:51:30;;;;;;;11.27;7.40;;;;;;;12.16;nan;-24156.66;5027179;28;20277;-71
2022/04/15 05:53:55;;;;;;;13.23;7.60;;;;;;;11.92;nan;-24150.03;5025887;28;20286;-70
2022/04/15 05:56:20;;;;;;;12.23;8.60;;;;;;;12.25;nan;-24159.06;5027608;28;20179;-71
2022/04/15 05:58:46;;;;;;;17.13;8.23;;;;;;;12.19;nan;-24157.50;5028966;28;20176;-70
2022/04/15 06:01:11;;;;;;;12.77;7.65;;;;;;;11.87;nan;-24148.63;5031259;28;20708;-69
2022/04/15 06:03:37;;;;;;;13.93;7.23;;;;;;;11.90;nan;-24149.47;5030874;28;20254;-70
2022/04/15 06:06:04;;;;;;;13.15;7.38;;;;;;;12.42;nan;-24163.84;5030953;28;20241;-70
2022/04/15 06:08:29;;;;;;;12.15;7.28;;;;;;;12.08;nan;-24154.25;5031051;28;20178;-70
2022/04/15 06:10:55;;;;;;;10.73;7.72;;;;;;;12.46;nan;-24164.81;5031446;28;20167;-69
2022/04/15 06:13:22;;;;;;;14.60;8.55;;;;;;;12.45;nan;-24164.69;5031380;28;20276;-70
2022/04/15 06:15:53;;;;;;;11.63;7.72;;;;;;;12.85;nan;-24175.78;5031513;28;20675;-69
2022/04/15 06:18:21;;;;;;;9.57;7.40;;;;;;;13.19;nan;-24185.22;5031455;28;20190;-69
2022/04/15 06:20:47;;;;;;;12.77;7.57;;;;;;;13.38;nan;-24190.41;5030329;28;20164;-69
2022/04/15 06:23:14;;;;;;;14.23;7.53;;;;;;;13.88;nan;-24204.31;5030898;28;20544;-69
2022/04/15 06:25:40;;;;;;;18.35;7.60;;;;;;;13.79;nan;-24201.91;5031206;28;20155;-71
2022/04/15 06:28:06;;;;;;;16.25;8.10;;;;;;;14.38;nan;-24218.22;5031346;28;20213;-71
2022/04/15 06:30:31;;;;;;;13.70;8.05;;;;;;;14.50;nan;-24221.56;5031462;28;20180;-71
2022/04/15 06:32:57;;;;;;;13.40;8.63;;;;;;;14.69;nan;-24226.75;5031143;28;20206;-71
2022/04/15 06:35:22;;;;;;;20.45;9.05;;;;;;;14.79;nan;-24229.69;5031442;28;20171;-70
2022/04/15 06:37:48;;;;;;;11.70;7.22;;;;;;;15.24;nan;-24242.03;5031191;28;20170;-70
2022/04/15 06:40:13;;;;;;;13.68;8.13;;;;;;;15.30;nan;-24243.72;5031395;28;20168;-70
2022/04/15 06:42:38;;;;;;;17.92;7.75;;;;;;;15.51;nan;-24249.47;5030439;28;20179;-71
2022/04/15 06:45:04;;;;;;;13.82;7.60;;;;;;;15.63;nan;-24252.94;5029544;28;20178;-71
2022/04/15 06:47:30;;;;;;;11.90;6.90;;;;;;;15.81;nan;-24257.84;5029430;28;20187;-74
2022/04/15 06:49:55;;;;;;;13.38;6.72;;;;;;;16.00;nan;-24263.03;5030044;28;20191;-74
2022/04/15 06:52:21;;;;;;;18.27;7.85;;;;;;;15.86;nan;-24259.38;5032198;28;20250;-75
2022/04/15 06:54:47;;;;;;;11.93;8.85;;;;;;;15.85;nan;-24259.13;5033998;28;20266;-75
2022/04/15 06:57:12;;;;;;;10.85;7.75;;;;;;;16.04;nan;-24264.16;5034082;28;20677;-75
2022/04/15 06:59:39;;;;;;;14.90;7.18;;;;;;;16.01;nan;-24263.31;5034422;28;20180;-75
2022/04/15 07:02:05;;;;;;;13.57;7.57;;;;;;;16.12;nan;-24266.38;5033484;28;20187;-75
2022/04/15 07:04:31;;;;;;;12.10;7.30;;;;;;;15.88;nan;-24259.94;5034954;28;20221;-75
2022/04/15 07:06:57;;;;;;;13.93;7.20;;;;;;;15.90;nan;-24260.38;5034567;28;20182;-75
2022/04/15 07:09:22;;;;;;;12.82;7.10;;;;;;;15.94;nan;-24261.34;5034793;28;20619;-75
2022/04/15 07:11:48;;;;;;;10.05;6.45;;;;;;;15.67;nan;-24253.94;5034901;28;20163;-75
2022/04/15 07:14:14;;;;;;;12.95;6.70;;;;;;;15.58;nan;-24251.41;5034683;28;20309;-75
2022/04/15 07:16:39;;;;;;;13.07;6.80;;;;;;;16.14;nan;-24267.09;5038104;28;20199;-75
2022/04/15 07:19:05;;;;;;;12.75;6.80;;;;;;;15.78;nan;-24257.00;5036966;28;20183;-75
2022/04/15 07:21:34;;;;;;;12.95;6.88;;;;;;;16.30;nan;-24271.56;5042881;28;20186;-74
2022/04/15 07:24:00;;;;;;;13.35;6.35;;;;;;;16.43;nan;-24274.91;5060650;28;20171;-75
2022/04/15 07:26:25;;;;;;;9.77;6.25;;;;;;;16.45;nan;-24275.47;5056841;28;20226;-74
2022/04/15 07:28:51;;;;;;;17.33;7.13;;;;;;;16.61;nan;-24280.09;5034946;28;20251;-74
2022/04/15 07:31:16;;;;;;;10.35;6.60;;;;;;;16.50;nan;-24276.88;5035336;28;20649;-75
2022/04/15 07:33:42;;;;;;;20.17;6.40;;;;;;;16.89;nan;-24287.63;5034591;28;20199;-75
2022/04/15 07:38:51;;;;;;;10.65;6.07;;;;;;;16.84;nan;-24286.22;5034802;28;20205;-75
2022/04/15 07:41:16;;;;;;;12.00;6.60;;;;;;;17.28;nan;-24298.38;5033071;28;20275;-75
2022/04/15 07:43:42;;;;;;;12.27;6.32;;;;;;;17.42;nan;-24302.44;5034264;28;20614;-75
2022/04/15 07:46:07;;;;;;;10.98;5.90;;;;;;;17.07;nan;-24292.81;5033937;28;20182;-76
2022/04/15 07:48:33;;;;;;;10.73;5.10;;;;;;;17.49;nan;-24304.25;5034228;28;20175;-74
2022/04/15 07:50:59;;;;;;;10.18;5.10;;;;;;;17.28;nan;-24298.53;5033838;28;20182;-75
2022/04/15 07:53:24;;;;;;;6.50;4.60;;;;;;;17.69;nan;-24309.69;5033598;28;20302;-75
2022/04/15 07:55:50;;;;;;;7.63;4.35;;;;;;;17.35;nan;-24300.34;5033650;28;20553;-75
2022/04/15 07:58:15;;;;;;;10.57;3.95;;;;;;;18.08;nan;-24320.72;5034186;28;20186;-75
2022/04/15 08:00:42;;;;;;;8.35;4.13;;;;;;;17.73;nan;-24310.81;5034255;28;20175;-75
2022/04/15 08:03:08;;;;;;;6.28;4.57;;;;;;;17.61;nan;-24307.59;5033352;28;20191;-75
2022/04/15 08:05:33;;;;;;;5.95;4.00;;;;;;;17.95;nan;-24316.94;5033857;28;20171;-75
2022/04/15 08:07:59;;;;;;;9.60;4.10;;;;;;;17.86;nan;-24314.44;5033718;28;20262;-75
2022/04/15 08:10:24;;;;;;;4.93;3.80;;;;;;;17.64;nan;-24308.56;5034228;28;20168;-75
2022/04/15 08:12:49;;;;;;;5.25;4.20;;;;;;;18.37;nan;-24328.66;5033972;28;20337;-75
2022/04/15 08:15:15;;;;;;;7.10;4.28;;;;;;;18.70;nan;-24337.56;5034044;28;20226;-76
2022/04/15 08:17:40;;;;;;;4.85;3.78;;;;;;;18.06;nan;-24320.16;5032281;28;20273;-75
2022/04/15 08:20:06;;;;;;;8.02;4.38;;;;;;;17.34;nan;-24300.06;5033756;28;20639;-75
2022/04/15 08:22:35;;;;;;;9.57;4.30;;;;;;;17.20;nan;-24296.28;5033894;28;20190;-75
2022/04/15 08:25:02;;;;;;;9.30;4.47;;;;;;;17.32;nan;-24299.50;5033706;28;20237;-75
2022/04/15 08:27:27;;;;;;;7.85;4.30;;;;;;;17.67;nan;-24309.28;5033531;28;20175;-75
2022/04/15 08:29:53;;;;;;;12.05;5.43;;;;;;;17.90;nan;-24315.53;5033679;28;20673;-75
2022/04/15 08:32:20;;;;;;;7.22;5.05;;;;;;;18.42;nan;-24329.91;5033022;28;20183;-75
2022/04/15 08:34:45;;;;;;;9.27;4.95;;;;;;;18.50;nan;-24332.28;5033130;28;21037;-75
2022/04/15 08:37:12;;;;;;;9.30;5.35;;;;;;;18.43;nan;-24330.19;5033149;28;20259;-75
2022/04/15 08:39:38;;;;;;;12.07;5.25;;;;;;;18.74;nan;-24338.69;5033298;28;20183;-75
2022/04/15 08:42:07;;;;;;;8.18;5.30;;;;;;;18.56;nan;-24333.81;5033046;28;20254;-76
2022/04/15 08:44:32;;;;;;;9.57;5.22;;;;;;;18.85;nan;-24341.88;5033092;28;20186;-76
2022/04/15 08:47:01;;;;;;;9.25;5.03;;;;;;;19.39;nan;-24356.78;5033633;28;20554;-73
2022/04/15 08:49:26;;;;;;;8.57;5.13;;;;;;;19.34;nan;-24355.38;5032665;28;20650;-74
2022/04/15 08:51:52;;;;;;;8.88;4.68;;;;;;;19.38;nan;-24356.34;5033879;28;20183;-76
2022/04/15 08:54:21;;;;;;;6.18;4.45;;;;;;;19.07;nan;-24347.88;5032208;28;20302;-76
2022/04/15 08:56:47;;;;;;;8.13;4.80;;;;;;;19.62;nan;-24362.91;5029560;28;20184;-76
2022/04/15 08:59:16;;;;;;;8.13;5.15;;;;;;;19.25;nan;-24352.88;5032765;28;20210;-77
2022/04/15 09:01:43;;;;;;;7.88;4.90;;;;;;;18.79;nan;-24340.22;5032702;28;20545;-75
2022/04/15 09:04:09;;;;;;;10.80;5.05;;;;;;;18.87;nan;-24342.31;5033013;28;20230;-75
2022/04/15 09:06:34;;;;;;;8.05;4.45;;;;;;;19.36;nan;-24355.81;5032703;28;20187;-75
2022/04/15 09:09:06;;;;;;;9.85;4.30;;;;;;;19.22;nan;-24351.91;5032232;28;20194;-75
2022/04/15 09:11:34;;;;;;;9.88;4.55;;;;;;;19.46;nan;-24358.59;5032752;28;20237;-73
2022/04/15 09:14:08;;;;;;;5.40;3.83;;;;;;;19.72;nan;-24365.69;5031695;28;20237;-76
2022/04/15 09:16:51;;;;;;;6.38;4.18;;;;;;;19.82;nan;-24368.59;5033140;28;20180;-75
2022/04/15 09:19:18;;;;;;;5.38;4.00;;;;;;;19.78;nan;-24367.47;5032687;28;20210;-75
2022/04/15 09:21:55;;;;;;;12.40;4.55;;;;;;;19.95;nan;-24372.06;5032524;28;20187;-76
2022/04/15 09:24:29;;;;;;;12.13;4.38;;;;;;;20.29;nan;-24381.50;5032377;28;20167;-76
2022/04/15 09:26:55;;;;;;;7.70;4.60;;;;;;;20.24;nan;-24380.13;5032942;28;20157;-75
2022/04/15 09:29:25;;;;;;;8.30;3.95;;;;;;;20.23;nan;-24379.72;5032344;28;20266;-75
2022/04/15 09:31:58;;;;;;;7.85;4.50;;;;;;;20.87;nan;-24397.34;5032261;28;20620;-76
2022/04/15 09:34:23;;;;;;;8.02;4.55;;;;;;;20.27;nan;-24380.97;5030506;28;20215;-75
2022/04/15 09:36:50;;;;;;;6.45;4.65;;;;;;;20.48;nan;-24386.53;5031751;28;20182;-75
2022/04/15 09:39:16;;;;;;;7.72;4.93;;;;;;;20.17;nan;-24378.19;5031660;28;20179;-76
2022/04/15 09:41:49;;;;;;;10.02;4.78;;;;;;;20.22;nan;-24379.44;5031995;28;20742;-76
2022/04/15 09:44:15;;;;;;;8.13;4.40;;;;;;;20.34;nan;-24382.63;5030872;28;20178;-76
2022/04/15 09:46:42;;;;;;;9.32;4.40;;;;;;;20.44;nan;-24385.41;5031285;28;20175;-75
2022/04/15 09:49:09;;;;;;;9.77;4.50;;;;;;;20.56;nan;-24388.75;5031226;28;20583;-76
2022/04/15 09:51:37;;;;;;;5.55;4.20;;;;;;;20.52;nan;-24387.63;5031075;28;20175;-74
2022/04/15 09:54:07;;;;;;;8.48;4.35;;;;;;;20.40;nan;-24384.44;5031258;28;20250;-75
2022/04/15 09:56:37;;;;;;;6.97;4.50;;;;;;;20.79;nan;-24395.13;5031549;28;20172;-75
2022/04/15 09:59:06;;;;;;;13.32;5.53;;;;;;;20.84;nan;-24396.50;5031291;28;20175;-75
2022/04/15 10:01:34;;;;;;;16.02;5.32;;;;;;;20.64;nan;-24390.97;5030850;28;20598;-75
2022/04/15 10:04:00;;;;;;;17.55;5.35;;;;;;;21.05;nan;-24402.34;5031206;28;20288;-74
2022/04/15 10:06:26;;;;;;;11.50;4.95;;;;;;;20.96;nan;-24399.69;5031216;28;20738;-76
2022/04/15 10:08:53;;;;;;;13.10;4.93;;;;;;;21.17;nan;-24405.38;5031521;28;20201;-75
2022/04/15 10:11:19;;;;;;;8.73;4.90;;;;;;;20.89;nan;-24397.91;5031463;28;20658;-76
2022/04/15 10:13:45;;;;;;;9.13;4.97;;;;;;;20.79;nan;-24394.97;5031348;28;20191;-76
2022/04/15 10:16:12;;;;;;;10.55;5.50;;;;;;;21.09;nan;-24403.44;5029092;28;20171;-76
2022/04/15 10:18:40;;;;;;;10.20;5.40;;;;;;;20.92;nan;-24398.72;5029943;28;20559;-74
2022/04/15 10:21:07;;;;;;;10.82;5.53;;;;;;;20.89;nan;-24397.91;5031709;28;20638;-74
2022/04/15 10:23:34;;;;;;;11.00;5.63;;;;;;;20.22;nan;-24379.56;5031760;28;20564;-75
2022/04/15 10:26:03;;;;;;;14.57;5.00;;;;;;;20.36;nan;-24383.19;5033808;28;20601;-76
2022/04/15 10:28:43;;;;;;;9.65;5.30;;;;;;;20.55;nan;-24388.59;5034123;28;20190;-75
2022/04/15 10:31:13;;;;;;;10.80;5.20;;;;;;;20.67;nan;-24391.94;5033967;28;20259;-74
2022/04/15 10:33:40;;;;;;;10.52;5.45;;;;;;;20.87;nan;-24397.19;5032453;28;20209;-74
2022/04/15 10:36:16;;;;;;;12.27;5.13;;;;;;;20.43;nan;-24385.13;5033720;28;20663;-74
2022/04/15 10:39:03;;;;;;;6.55;4.70;;;;;;;20.71;nan;-24392.91;5033296;28;20201;-74
2022/04/15 10:41:50;;;;;;;7.28;4.68;;;;;;;21.00;nan;-24400.94;5034543;28;20271;-74
2022/04/15 10:44:27;;;;;;;8.98;4.70;;;;;;;20.73;nan;-24393.59;5031386;28;20171;-75
2022/04/15 10:46:57;;;;;;;11.13;4.63;;;;;;;20.63;nan;-24390.69;5033093;28;20278;-74
2022/04/15 10:49:26;;;;;;;9.23;4.40;;;;;;;20.74;nan;-24393.72;5034883;28;20244;-73
2022/04/15 10:52:15;;;;;;;13.38;4.60;;;;;;;20.95;nan;-24399.41;5033844;28;20274;-75
2022/04/15 10:54:42;;;;;;;6.97;4.18;;;;;;;21.43;nan;-24412.59;5034769;28;20211;-74
2022/04/15 10:57:18;;;;;;;8.55;4.32;;;;;;;21.35;nan;-24410.38;5035124;28;20199;-73
2022/04/15 11:02:50;;;;;;;6.97;4.50;;;;;;;21.90;nan;-24425.47;5033909;28;20309;-73
2022/04/15 11:05:35;;;;;;;7.05;4.40;;;;;;;21.59;nan;-24417.16;5035123;28;20202;-74
2022/04/15 11:08:15;;;;;;;6.28;3.90;;;;;;;21.69;nan;-24419.66;5034568;28;20156;-75
2022/04/15 11:10:43;;;;;;;13.13;4.20;;;;;;;22.07;nan;-24430.19;5032533;28;20179;-75
2022/04/15 11:13:24;;;;;;;6.05;4.13;;;;;;;21.75;nan;-24421.47;5031153;28;20679;-75
2022/04/15 11:16:12;;;;;;;6.25;3.97;;;;;;;22.02;nan;-24428.81;5031687;28;20179;-74
2022/04/15 11:18:51;;;;;;;7.13;3.78;;;;;;;22.24;nan;-24434.75;5027924;28;20202;-74
2022/04/15 11:21:22;;;;;;;8.45;4.55;;;;;;;22.34;nan;-24437.66;5028495;28;20198;-74
2022/04/15 11:23:55;;;;;;;7.40;4.25;;;;;;;22.25;nan;-24435.16;5029312;28;20534;-74
2022/04/15 11:26:23;;;;;;;8.70;4.78;;;;;;;22.26;nan;-24435.44;5030658;28;20199;-75
2022/04/15 11:28:51;;;;;;;12.30;4.93;;;;;;;22.27;nan;-24435.59;5026519;28;20274;-74
2022/04/15 11:31:29;;;;;;;7.70;5.18;;;;;;;22.64;nan;-24445.69;5031642;28;20207;-75
2022/04/15 11:34:06;;;;;;;7.65;4.38;;;;;;;22.93;nan;-24453.72;5034151;28;20207;-75
2022/04/15 11:36:42;;;;;;;10.25;4.78;;;;;;;22.95;nan;-24454.25;5031310;28;20191;-75
2022/04/15 11:39:10;;;;;;;7.97;4.65;;;;;;;23.03;nan;-24456.34;5030189;28;20195;-76
2022/04/15 11:41:41;;;;;;;7.07;4.82;;;;;;;22.91;nan;-24453.16;5029564;28;20179;-74
2022/04/15 11:44:07;;;;;;;10.30;5.05;;;;;;;22.84;nan;-24451.34;5030557;28;20575;-75